createdAt,value
2022-11-15T00:01:27.268Z,25.10
2022-11-15T00:04:30.122Z,22.10
2022-11-15T00:07:54.769Z,29.20
2022-11-15T00:10:57.357Z,26.50
2022-11-15T00:14:03.411Z,29.00
2022-11-15T00:17:06.403Z,27.50
2022-11-15T00:20:09.881Z,22.60
2022-11-15T00:23:13.423Z,21.80
2022-11-15T00:26:16.979Z,25.50
2022-11-15T00:29:20.023Z,22.40
2022-11-15T00:32:22.972Z,24.30
2022-11-15T00:35:26.055Z,23.60
2022-11-15T00:38:37.081Z,22.00
2022-11-15T00:41:39.939Z,29.50
2022-11-15T00:44:42.810Z,24.40
2022-11-15T00:47:53.096Z,30.00
2022-11-15T00:50:55.981Z,22.80
2022-11-15T00:54:37.565Z,26.30
2022-11-15T00:57:40.514Z,22.90
2022-11-15T01:00:44.203Z,22.40
2022-11-15T01:03:47.245Z,22.30
2022-11-15T01:06:50.312Z,20.40
2022-11-15T01:10:21.616Z,19.70
2022-11-15T01:13:24.553Z,17.80
2022-11-15T01:16:27.624Z,20.70
2022-11-15T01:19:30.525Z,20.20
2022-11-15T01:22:33.636Z,19.90
2022-11-15T01:25:36.650Z,21.00
2022-11-15T01:28:41.853Z,20.90
2022-11-15T01:31:44.829Z,16.80
2022-11-15T01:34:47.763Z,16.20
2022-11-15T01:37:50.787Z,17.40
2022-11-15T01:40:53.691Z,17.30
2022-11-15T01:44:17.060Z,15.80
2022-11-15T01:47:26.154Z,13.90
2022-11-15T01:50:33.703Z,15.30
2022-11-15T01:53:39.620Z,14.60
2022-11-15T01:56:52.202Z,16.90
2022-11-15T01:59:55.563Z,16.20
2022-11-15T02:02:59.120Z,16.40
2022-11-15T02:06:04.864Z,15.80
2022-11-15T02:09:07.851Z,14.10
2022-11-15T02:12:13.601Z,19.10
2022-11-15T02:15:17.010Z,17.80
2022-11-15T02:18:35.134Z,15.90
2022-11-15T02:22:07.347Z,15.60
2022-11-15T02:25:25.193Z,17.00
2022-11-15T02:28:34.497Z,20.70
2022-11-15T02:32:05.328Z,18.70
2022-11-15T02:35:29.648Z,14.20
2022-11-15T02:38:47.277Z,19.60
2022-11-15T02:42:04.999Z,20.10
2022-11-15T02:45:14.353Z,18.00
2022-11-15T02:48:19.146Z,21.20
2022-11-15T02:51:22.861Z,17.70
2022-11-15T02:54:55.262Z,15.90
2022-11-15T02:58:20.140Z,20.40
2022-11-15T03:01:44.237Z,17.50
2022-11-15T03:04:57.178Z,16.10
2022-11-15T03:08:24.282Z,14.80
2022-11-15T03:11:28.912Z,18.70
2022-11-15T03:14:37.364Z,19.10
2022-11-15T03:17:52.823Z,16.40
2022-11-15T03:20:58.303Z,21.90
2022-11-15T03:24:06.664Z,20.50
2022-11-15T03:27:13.779Z,20.00
2022-11-15T03:30:18.138Z,20.80
2022-11-15T03:33:23.189Z,16.80
2022-11-15T03:36:27.579Z,21.20
2022-11-15T03:39:30.766Z,21.50
2022-11-15T03:42:46.245Z,19.10
2022-11-15T03:46:02.088Z,18.10
2022-11-15T03:49:17.422Z,20.50
2022-11-15T03:52:22.369Z,19.30
2022-11-15T03:55:25.483Z,21.30
2022-11-15T03:58:28.430Z,20.10
2022-11-15T04:01:31.471Z,19.80
2022-11-15T04:04:34.502Z,25.10
2022-11-15T04:07:39.255Z,23.10
2022-11-15T04:10:43.059Z,17.70
2022-11-15T04:13:46.006Z,20.90
2022-11-15T04:16:48.961Z,17.50
2022-11-15T04:20:13.594Z,17.70
2022-11-15T04:23:41.475Z,20.80
2022-11-15T04:26:44.419Z,17.10
2022-11-15T04:29:48.006Z,22.70
2022-11-15T04:32:50.810Z,25.20
2022-11-15T04:36:12.441Z,20.80
2022-11-15T04:39:15.357Z,16.70
2022-11-15T04:42:18.255Z,19.40
2022-11-15T04:45:21.419Z,27.90
2022-11-15T04:48:24.254Z,20.90
2022-11-15T04:51:27.779Z,18.30
2022-11-15T04:54:30.682Z,21.10
2022-11-15T04:57:33.552Z,27.30
2022-11-15T05:00:37.463Z,18.60
2022-11-15T05:04:04.038Z,16.10
2022-11-15T05:07:06.956Z,17.60
2022-11-15T05:10:10.558Z,22.20
2022-11-15T05:13:13.405Z,20.30
2022-11-15T05:16:16.239Z,21.20
2022-11-15T05:19:19.036Z,19.80
2022-11-15T05:22:23.739Z,23.40
2022-11-15T05:25:27.199Z,16.70
2022-11-15T05:28:30.023Z,18.00
2022-11-15T05:31:32.868Z,17.50
2022-11-15T05:34:36.213Z,17.70
2022-11-15T05:37:39.072Z,16.10
2022-11-15T05:40:42.081Z,17.90
2022-11-15T05:43:47.477Z,18.00
2022-11-15T05:46:54.620Z,21.60
2022-11-15T05:49:58.650Z,18.70
2022-11-15T05:53:05.259Z,16.90
2022-11-15T05:56:10.883Z,23.40
2022-11-15T05:59:14.324Z,21.80
2022-11-15T06:02:17.294Z,20.50
2022-11-15T06:05:20.194Z,21.30
2022-11-15T06:08:23.056Z,20.80
2022-11-15T06:11:29.441Z,17.00
2022-11-15T06:14:32.409Z,18.10
2022-11-15T06:17:35.257Z,20.60
2022-11-15T06:20:38.105Z,18.20
2022-11-15T06:23:40.937Z,19.00
2022-11-15T06:26:43.687Z,20.60
2022-11-15T06:29:46.505Z,19.40
2022-11-15T06:32:49.461Z,20.60
2022-11-15T06:35:52.385Z,21.50
2022-11-15T06:39:20.148Z,24.70
2022-11-15T06:42:23.878Z,17.90
2022-11-15T06:45:27.718Z,15.50
2022-11-15T06:48:31.437Z,17.10
2022-11-15T06:51:34.359Z,19.40
2022-11-15T06:54:37.192Z,20.10
2022-11-15T06:57:48.441Z,17.20
2022-11-15T07:00:51.396Z,21.20
2022-11-15T07:03:54.279Z,17.70
2022-11-15T07:06:57.182Z,23.80
2022-11-15T07:10:00.110Z,15.60
2022-11-15T07:13:03.059Z,15.80
2022-11-15T07:16:08.207Z,18.90
2022-11-15T07:19:11.224Z,17.80
2022-11-15T07:22:14.026Z,19.10
2022-11-15T07:25:17.451Z,14.60
2022-11-15T07:28:20.607Z,16.30
2022-11-15T07:31:23.687Z,23.60
2022-11-15T07:34:26.504Z,17.90
2022-11-15T07:37:29.354Z,19.70
2022-11-15T07:40:33.236Z,15.50
2022-11-15T07:43:36.628Z,17.60
2022-11-15T07:46:39.477Z,21.60
2022-11-15T07:49:42.292Z,16.50
2022-11-15T07:52:46.291Z,16.10
2022-11-15T07:55:49.100Z,17.40
2022-11-15T07:58:52.010Z,18.70
2022-11-15T08:01:54.913Z,17.90
2022-11-15T08:04:58.105Z,16.50
2022-11-15T08:08:00.959Z,17.20
2022-11-15T08:11:04.386Z,16.70
2022-11-15T08:14:07.242Z,19.10
2022-11-15T08:17:10.647Z,17.00
2022-11-15T08:20:13.437Z,18.40
2022-11-15T08:23:16.287Z,16.10
2022-11-15T08:26:19.153Z,17.90
2022-11-15T08:29:22.022Z,16.60
2022-11-15T08:32:25.409Z,21.70
2022-11-15T08:35:30.433Z,17.50
2022-11-15T08:38:34.303Z,13.90
2022-11-15T08:41:39.049Z,16.50
2022-11-15T08:44:41.838Z,14.80
2022-11-15T08:48:12.338Z,17.20
2022-11-15T08:51:15.202Z,16.60
2022-11-15T08:54:18.273Z,15.30
2022-11-15T08:57:21.100Z,14.20
2022-11-15T09:00:23.996Z,22.00
2022-11-15T09:03:26.965Z,16.40
2022-11-15T09:06:29.949Z,15.00
2022-11-15T09:09:32.783Z,16.00
2022-11-15T09:12:36.275Z,14.90
2022-11-15T09:15:39.384Z,14.50
2022-11-15T09:18:43.060Z,18.50
2022-11-15T09:21:46.270Z,19.20
2022-11-15T09:24:49.243Z,14.40
2022-11-15T09:27:52.147Z,12.10
2022-11-15T09:31:03.243Z,18.90
2022-11-15T09:34:06.137Z,15.50
2022-11-15T09:37:09.055Z,12.50
2022-11-15T09:40:17.702Z,11.70
2022-11-15T09:43:44.351Z,12.70
2022-11-15T09:47:05.668Z,14.30
2022-11-15T09:50:16.216Z,15.30
2022-11-15T09:54:24.110Z,13.30
2022-11-15T09:57:16.310Z,13.30
2022-11-15T10:00:50.554Z,13.60
2022-11-15T10:03:59.096Z,16.20
2022-11-15T10:07:14.533Z,13.60
2022-11-15T10:10:31.289Z,12.30
2022-11-15T10:13:38.344Z,16.20
2022-11-15T10:16:48.452Z,13.90
2022-11-15T10:20:13.712Z,12.20
2022-11-15T10:23:20.244Z,11.60
2022-11-15T10:26:25.205Z,12.90
2022-11-15T10:29:28.086Z,14.90
2022-11-15T10:32:34.104Z,11.40
2022-11-15T10:35:37.184Z,16.40
2022-11-15T10:38:49.164Z,9.20
2022-11-15T10:41:52.466Z,9.40
2022-11-15T10:44:55.743Z,10.00
2022-11-15T10:48:14.706Z,12.20
2022-11-15T10:51:31.089Z,9.10
2022-11-15T10:54:42.867Z,10.00
2022-11-15T10:57:55.610Z,9.80
2022-11-15T11:01:10.634Z,11.80
2022-11-15T11:04:15.259Z,9.00
2022-11-15T11:07:25.418Z,9.10
2022-11-15T11:10:50.496Z,11.20
2022-11-15T11:13:51.848Z,11.90
2022-11-15T11:17:34.037Z,13.20
2022-11-15T11:20:46.143Z,8.40
2022-11-15T11:24:17.050Z,8.20
2022-11-15T11:27:29.222Z,9.20
2022-11-15T11:30:47.009Z,8.40
2022-11-15T11:34:12.897Z,7.90
2022-11-15T11:37:30.123Z,6.90
2022-11-15T11:40:46.551Z,8.10
2022-11-15T11:44:34.991Z,9.60
2022-11-15T11:47:48.722Z,7.70
2022-11-15T11:50:59.483Z,6.70
2022-11-15T11:54:16.046Z,5.80
2022-11-15T11:57:50.796Z,7.80
2022-11-15T12:00:59.723Z,8.60
2022-11-15T12:04:26.102Z,11.90
2022-11-15T12:07:38.186Z,7.20
2022-11-15T12:10:46.647Z,7.60
2022-11-15T12:13:54.927Z,8.60
2022-11-15T12:16:59.803Z,9.00
2022-11-15T12:20:16.676Z,8.80
2022-11-15T12:23:27.823Z,7.90
2022-11-15T12:26:44.248Z,8.70
2022-11-15T12:29:53.373Z,11.10
2022-11-15T12:32:58.373Z,17.10
2022-11-15T12:36:05.552Z,19.70
2022-11-15T12:39:13.266Z,12.80
2022-11-15T12:42:22.495Z,10.60
2022-11-15T12:45:32.733Z,13.60
2022-11-15T12:48:35.489Z,14.10
2022-11-15T12:51:44.389Z,15.50
2022-11-15T12:54:55.161Z,14.10
2022-11-15T12:58:44.314Z,13.90
2022-11-15T13:01:48.924Z,15.10
2022-11-15T13:04:55.143Z,21.80
2022-11-15T13:07:59.423Z,33.70
2022-11-15T13:11:40.732Z,35.60
2022-11-15T13:14:48.515Z,23.40
2022-11-15T13:17:56.701Z,22.40
2022-11-15T13:21:02.633Z,29.30
2022-11-15T13:24:24.658Z,28.50
2022-11-15T13:27:28.007Z,32.70
2022-11-15T13:30:32.444Z,25.20
2022-11-15T13:33:37.815Z,23.00
2022-11-15T13:36:40.855Z,27.00
2022-11-15T13:39:45.076Z,29.70
2022-11-15T13:42:48.023Z,29.90
2022-11-15T13:46:21.077Z,27.60
2022-11-15T13:49:31.754Z,27.10
2022-11-15T13:57:44.016Z,27.60
2022-11-15T14:00:48.387Z,28.10
2022-11-15T14:04:02.191Z,18.90
2022-11-15T14:07:05.361Z,12.50
2022-11-15T14:10:29.827Z,12.70
2022-11-15T14:13:33.009Z,12.60
2022-11-15T14:16:46.539Z,16.20
2022-11-15T14:19:50.196Z,19.20
2022-11-15T14:22:58.086Z,12.40
2022-11-15T14:26:01.130Z,11.30
2022-11-15T14:29:36.811Z,15.20
2022-11-15T14:32:51.113Z,14.60
2022-11-15T14:35:57.163Z,17.50
2022-11-15T14:39:00.051Z,18.50
2022-11-15T14:42:02.875Z,14.30
2022-11-15T14:45:15.934Z,14.20
2022-11-15T14:48:18.805Z,17.60
2022-11-15T14:51:21.685Z,19.00
2022-11-15T14:54:24.657Z,21.30
2022-11-15T14:57:29.073Z,29.40
2022-11-15T15:00:35.257Z,19.50
2022-11-15T15:03:38.434Z,18.00
2022-11-15T15:06:41.349Z,18.10
2022-11-15T15:09:45.107Z,23.40
2022-11-15T15:12:48.917Z,24.90
2022-11-15T15:15:53.791Z,24.50
2022-11-15T15:18:56.643Z,20.50
2022-11-15T15:21:59.466Z,16.50
2022-11-15T15:25:02.384Z,21.90
2022-11-15T15:28:05.432Z,21.20
2022-11-15T15:31:12.406Z,27.90
2022-11-15T15:34:16.756Z,31.20
2022-11-15T15:37:27.375Z,25.20
2022-11-15T15:40:33.969Z,19.90
2022-11-15T15:43:36.837Z,20.60
2022-11-15T15:46:39.943Z,21.30
2022-11-15T15:49:42.990Z,25.20
2022-11-15T15:52:45.993Z,25.50
2022-11-15T15:55:49.050Z,22.80
2022-11-15T15:58:54.308Z,23.10
2022-11-15T16:01:57.424Z,23.70
2022-11-15T16:05:00.504Z,27.40
2022-11-15T16:08:03.635Z,28.90
2022-11-15T16:11:07.505Z,25.90
2022-11-15T16:14:10.491Z,22.80
2022-11-15T16:17:19.676Z,24.40
2022-11-15T16:20:31.699Z,22.60
2022-11-15T16:23:34.915Z,23.30
2022-11-15T16:26:39.845Z,24.10
2022-11-15T16:29:42.880Z,31.50
2022-11-15T16:32:46.484Z,25.50
2022-11-15T16:35:49.542Z,23.20
2022-11-15T16:38:54.352Z,21.40
2022-11-15T16:42:02.332Z,22.30
2022-11-15T16:45:06.136Z,28.30
2022-11-15T16:48:25.534Z,25.60
2022-11-15T16:51:29.162Z,18.20
2022-11-15T16:54:32.410Z,18.20
2022-11-15T16:57:36.188Z,17.10
2022-11-15T17:00:39.920Z,25.70
2022-11-15T17:03:44.583Z,20.70
2022-11-15T17:07:17.546Z,22.20
2022-11-15T17:10:25.700Z,19.20
2022-11-15T17:13:29.200Z,22.70
2022-11-15T17:16:32.183Z,26.50
2022-11-15T17:19:35.096Z,30.70
2022-11-15T17:22:37.975Z,22.70
2022-11-15T17:25:41.618Z,25.40
2022-11-15T17:28:44.498Z,25.30
2022-11-15T17:31:47.357Z,29.60
2022-11-15T17:34:50.212Z,33.80
2022-11-15T17:37:53.379Z,38.70
2022-11-15T17:41:05.453Z,33.80
2022-11-15T17:44:08.300Z,31.60
2022-11-15T17:47:11.164Z,37.20
2022-11-15T17:50:14.530Z,41.90
2022-11-15T17:53:18.049Z,52.40
2022-11-15T17:56:27.191Z,57.40
2022-11-15T17:59:39.680Z,39.10
2022-11-15T18:02:42.931Z,38.10
2022-11-15T18:05:46.219Z,35.20
2022-11-15T18:09:00.399Z,46.60
2022-11-15T18:12:07.375Z,39.60
2022-11-15T18:15:14.120Z,37.70
2022-11-15T18:18:20.922Z,36.50
2022-11-15T18:21:36.328Z,35.90
2022-11-15T18:24:52.305Z,33.70
2022-11-15T18:27:59.894Z,35.40
2022-11-15T18:31:26.030Z,43.60
2022-11-15T18:35:01.579Z,38.40
2022-11-15T18:38:12.451Z,32.90
2022-11-15T20:07:06.869Z,50.90
2022-11-15T20:10:19.574Z,48.80
2022-11-15T20:13:28.180Z,48.50
2022-11-15T20:16:42.104Z,45.50
2022-11-15T20:19:51.749Z,39.00
2022-11-15T20:27:10.228Z,44.80
2022-11-15T20:31:00.821Z,51.20
2022-11-15T20:34:39.798Z,46.80
2022-11-15T20:37:58.822Z,44.70
2022-11-15T20:41:04.111Z,42.30
2022-11-15T20:44:06.989Z,44.10
2022-11-15T20:47:09.825Z,49.90
2022-11-15T20:50:40.608Z,54.20
2022-11-15T20:53:38.178Z,51.00
2022-11-15T20:56:41.080Z,39.90
2022-11-15T20:59:47.706Z,42.50
2022-11-15T21:02:53.477Z,43.70
2022-11-15T21:05:56.417Z,53.10
2022-11-15T21:09:20.986Z,56.70
2022-11-15T21:12:24.032Z,53.10
2022-11-15T21:15:26.858Z,45.60
2022-11-15T21:18:35.635Z,51.10
2022-11-15T21:21:40.536Z,55.00
2022-11-15T21:24:43.662Z,56.60
2022-11-15T21:28:01.913Z,48.40
2022-11-15T21:31:10.000Z,47.10
2022-11-15T21:34:15.530Z,47.90
2022-11-15T21:37:18.339Z,50.70
2022-11-15T21:40:25.664Z,54.20
2022-11-15T21:43:28.601Z,52.20
2022-11-15T21:46:32.363Z,45.10
2022-11-15T21:49:38.770Z,42.70
2022-11-15T21:52:47.261Z,40.20
2022-11-15T21:55:50.225Z,37.20
2022-11-15T21:58:54.258Z,43.80
2022-11-15T22:02:16.174Z,44.40
2022-11-15T22:05:19.994Z,39.50
2022-11-15T22:08:24.130Z,38.20
2022-11-15T22:11:29.303Z,39.80
2022-11-15T22:14:32.286Z,38.70
2022-11-15T22:17:54.052Z,41.00
2022-11-15T22:20:58.394Z,41.30
2022-11-15T22:24:04.104Z,38.40
2022-11-15T22:27:07.297Z,34.90
2022-11-15T22:30:11.277Z,36.90
2022-11-15T22:33:15.398Z,36.60
2022-11-15T22:36:18.533Z,37.70
2022-11-15T22:39:21.432Z,37.10
2022-11-15T22:42:24.432Z,30.70
2022-11-15T22:45:27.505Z,30.30
2022-11-15T22:48:34.659Z,35.20
2022-11-15T22:51:40.694Z,32.30
2022-11-15T22:54:44.218Z,35.90
2022-11-15T22:57:47.174Z,35.70
2022-11-15T23:00:57.544Z,31.70
2022-11-15T23:04:01.450Z,36.50
2022-11-15T23:07:04.668Z,29.00
2022-11-15T23:10:26.921Z,32.90
2022-11-15T23:13:32.260Z,36.20
2022-11-15T23:16:35.228Z,39.90
2022-11-15T23:19:38.138Z,37.10
2022-11-15T23:22:47.435Z,32.10
2022-11-15T23:25:59.125Z,37.30
2022-11-15T23:29:02.136Z,41.20
2022-11-15T23:32:49.236Z,38.00
2022-11-15T23:35:55.697Z,39.20
2022-11-15T23:38:58.771Z,30.80
2022-11-15T23:42:08.576Z,35.00
2022-11-15T23:45:12.298Z,29.50
2022-11-15T23:48:15.254Z,37.10
2022-11-15T23:51:18.219Z,38.30
2022-11-15T23:54:25.106Z,42.40
2022-11-15T23:57:29.147Z,37.20
